Time;durP1;ratioP1;P1;durP2;ratioP2;P2;SDS_P1;SDS_P2;PMS_P1;PMS_P2;Temp;Humidity;BMP_temperature;BMP_pressure;BME280_temperature;BME280_humidity;BME280_pressure;Samples;Min_cycle;Max_cycle;Signal;HPM_P1;HPM_P2
2023/10/14 00:01:31;;;;;;;0.30;0.13;;;27.70;40.60;;;;;;5008138;28;20053;-67
2023/10/14 00:04:01;;;;;;;1.48;0.20;;;27.60;40.90;;;;;;5009918;28;20022;-67
2023/10/14 00:06:29;;;;;;;0.80;0.30;;;28.10;39.90;;;;;;5010694;28;20033;-67
2023/10/14 00:09:01;;;;;;;0.65;0.30;;;27.70;40.00;;;;;;5007415;28;20086;-67
2023/10/14 00:11:35;;;;;;;1.38;0.30;;;27.70;40.60;;;;;;4992713;28;20176;-68
2023/10/14 00:14:17;;;;;;;0.38;0.13;;;27.50;40.90;;;;;;5009771;28;20042;-68
2023/10/14 00:16:54;;;;;;;0.45;0.15;;;27.40;41.20;;;;;;5010619;28;20057;-68
2023/10/14 00:19:23;;;;;;;0.73;0.30;;;27.90;40.00;;;;;;5008029;28;20021;-68
2023/10/14 00:21:51;;;;;;;3.03;0.32;;;27.60;40.50;;;;;;5009893;28;20091;-67
2023/10/14 00:24:28;;;;;;;1.85;0.20;;;26.70;41.30;;;;;;5007696;28;20467;-68
2023/10/14 00:27:04;;;;;;;2.17;0.52;;;27.50;41.20;;;;;;5010513;28;20025;-69
2023/10/14 00:29:32;;;;;;;0.63;0.27;;;28.10;40.60;;;;;;4992081;28;20072;-68
2023/10/14 00:31:59;;;;;;;1.20;0.20;;;28.60;39.60;;;;;;5009414;28;20018;-68
2023/10/14 00:34:27;;;;;;;0.60;0.28;;;28.50;39.90;;;;;;5009404;28;20045;-68
2023/10/14 00:36:55;;;;;;;0.52;0.45;;;28.70;39.70;;;;;;5008777;28;20034;-69
2023/10/14 00:39:31;;;;;;;0.77;0.20;;;29.10;39.10;;;;;;5007582;28;20014;-68
2023/10/14 00:41:59;;;;;;;1.42;0.40;;;29.00;38.80;;;;;;4991261;28;20037;-68
2023/10/14 00:44:27;;;;;;;1.05;0.50;;;29.30;38.90;;;;;;5010092;28;20501;-68
2023/10/14 00:46:56;;;;;;;1.27;0.28;;;29.50;40.00;;;;;;5010530;28;20026;-68
2023/10/14 00:49:35;;;;;;;1.15;0.50;;;29.90;37.80;;;;;;5004006;28;20038;-68
2023/10/14 00:52:10;;;;;;;1.08;0.60;;;29.10;39.10;;;;;;5009510;28;20026;-69
2023/10/14 00:54:58;;;;;;;4.03;0.60;;;28.50;38.80;;;;;;5013301;28;20099;-68
2023/10/14 00:57:37;;;;;;;1.33;0.40;;;28.30;39.40;;;;;;5013831;28;20389;-68
2023/10/14 01:00:09;;;;;;;2.75;0.60;;;28.50;39.80;;;;;;5010797;28;20034;-67
2023/10/14 01:02:38;;;;;;;1.70;0.73;;;29.00;39.30;;;;;;5012271;28;20037;-69
2023/10/14 01:05:14;;;;;;;1.13;0.57;;;29.20;37.90;;;;;;5012882;28;20033;-68
2023/10/14 01:07:41;;;;;;;1.35;0.38;;;29.40;39.20;;;;;;5013223;28;20501;-68
2023/10/14 01:10:12;;;;;;;2.97;0.70;;;29.50;37.80;;;;;;4993303;28;20034;-67
2023/10/14 01:12:44;;;;;;;1.70;0.60;;;28.90;39.00;;;;;;4996058;28;20061;-66
2023/10/14 01:15:28;;;;;;;1.70;0.77;;;28.90;38.50;;;;;;5009521;28;20131;-67
2023/10/14 01:17:56;;;;;;;1.33;0.70;;;29.10;39.80;;;;;;5013104;28;20447;-66
2023/10/14 01:22:51;;;;;;;2.10;0.60;;;29.20;38.10;;;;;;5009464;28;20037;-68
2023/10/14 01:25:19;;;;;;;1.20;0.70;;;29.00;38.20;;;;;;5009203;28;20072;-68
2023/10/14 01:27:47;;;;;;;5.35;0.80;;;29.40;38.60;;;;;;5006522;28;20026;-68
2023/10/14 01:30:19;;;;;;;1.33;0.65;;;29.60;38.00;;;;;;5010358;28;20442;-68
2023/10/14 01:35:32;;;;;;;1.25;0.75;;;29.70;38.20;;;;;;5011327;28;20053;-68
2023/10/14 01:38:01;;;;;;;1.77;0.75;;;30.30;39.40;;;;;;5011535;28;20069;-67
2023/10/14 01:40:36;;;;;;;1.77;0.70;;;30.90;38.10;;;;;;4995081;28;20061;-68
2023/10/14 01:43:08;;;;;;;1.08;0.68;;;31.30;37.40;;;;;;5009940;28;20124;-67
2023/10/14 01:45:40;;;;;;;2.28;0.82;;;31.70;36.00;;;;;;5007474;28;20018;-68
2023/10/14 01:50:46;;;;;;;5.10;0.82;;;31.50;36.20;;;;;;5012572;28;20034;-68
2023/10/14 01:53:21;;;;;;;0.80;0.50;;;32.10;37.00;;;;;;5010077;28;20100;-68
2023/10/14 01:55:50;;;;;;;1.92;0.70;;;31.70;35.30;;;;;;5009041;28;20053;-68
2023/10/14 01:58:29;;;;;;;1.60;0.70;;;31.50;35.70;;;;;;4992755;28;20344;-66
2023/10/14 02:01:04;;;;;;;2.78;0.70;;;31.30;36.00;;;;;;5009584;28;20026;-68
2023/10/14 02:03:41;;;;;;;1.05;0.50;;;31.80;37.00;;;;;;4994451;28;20387;-68
2023/10/14 02:06:16;;;;;;;0.73;0.50;;;31.80;35.50;;;;;;5011097;28;20026;-67
2023/10/14 02:08:51;;;;;;;2.22;0.52;;;31.80;35.20;;;;;;5009249;28;20378;-67
2023/10/14 02:11:21;;;;;;;1.55;0.52;;;31.90;34.00;;;;;;5012006;28;20114;-67
2023/10/14 02:13:52;;;;;;;0.95;0.50;;;31.70;34.20;;;;;;5010035;28;20038;-68
2023/10/14 02:16:35;;;;;;;0.65;0.47;;;31.90;35.30;;;;;;4987937;28;20033;-68
2023/10/14 02:22:00;;;;;;;1.05;0.60;;;32.20;34.70;;;;;;5011701;28;20045;-68
2023/10/14 02:24:28;;;;;;;0.50;0.30;;;32.60;34.40;;;;;;5011821;28;20029;-68
2023/10/14 02:27:20;;;;;;;1.30;0.60;;;33.10;34.10;;;;;;5011025;28;20033;-67
2023/10/14 02:29:47;;;;;;;1.20;0.45;;;33.20;33.30;;;;;;5009159;28;20064;-68
2023/10/14 02:32:15;;;;;;;1.00;0.45;;;31.90;33.30;;;;;;5012128;28;20022;-67
2023/10/14 02:34:46;;;;;;;1.60;0.30;;;32.10;34.80;;;;;;5011322;28;20120;-67
2023/10/14 02:37:14;;;;;;;2.10;0.40;;;32.90;34.40;;;;;;5009556;28;20076;-67
2023/10/14 02:39:44;;;;;;;1.20;0.40;;;32.40;33.00;;;;;;5005546;28;20033;-67
2023/10/14 02:42:14;;;;;;;1.35;0.40;;;32.60;33.50;;;;;;5011376;28;20072;-67
2023/10/14 02:44:47;;;;;;;0.90;0.50;;;33.10;32.90;;;;;;5008921;28;20429;-67
2023/10/14 02:47:14;;;;;;;0.90;0.47;;;33.20;31.70;;;;;;5009962;28;20033;-68
2023/10/14 02:49:42;;;;;;;1.55;0.40;;;32.90;32.50;;;;;;5011350;28;20487;-67
2023/10/14 02:52:11;;;;;;;1.02;0.50;;;33.30;33.70;;;;;;5009490;28;20061;-67
2023/10/14 02:54:54;;;;;;;0.47;0.38;;;33.90;33.70;;;;;;5008293;28;20042;-68
2023/10/14 02:59:49;;;;;;;0.50;0.40;;;34.30;32.20;;;;;;5009017;28;20069;-67
2023/10/14 03:02:48;;;;;;;0.50;0.38;;;34.30;32.50;;;;;;5011242;28;20025;-67
2023/10/14 03:05:32;;;;;;;1.08;0.40;;;34.50;32.30;;;;;;5008778;28;20384;-68
2023/10/14 03:08:10;;;;;;;1.85;0.40;;;34.60;32.30;;;;;;4990649;28;20486;-68
2023/10/14 03:10:42;;;;;;;0.90;0.40;;;34.70;30.50;;;;;;5009072;28;20363;-67
2023/10/14 03:13:13;;;;;;;2.72;0.40;;;34.60;32.10;;;;;;5009171;28;20092;-67
2023/10/14 03:15:44;;;;;;;1.98;0.43;;;34.70;29.90;;;;;;5008473;28;20136;-67
2023/10/14 03:18:16;;;;;;;0.43;0.38;;;34.40;30.30;;;;;;4990068;28;20026;-66
2023/10/14 03:23:23;;;;;;;1.75;0.50;;;34.90;31.60;;;;;;5011639;28;20096;-66
2023/10/14 03:25:52;;;;;;;0.98;0.40;;;34.90;31.60;;;;;;5009171;28;20558;-67
2023/10/14 03:28:24;;;;;;;1.63;0.50;;;34.80;31.60;;;;;;5010739;28;20029;-67
2023/10/14 03:30:58;;;;;;;0.82;0.40;;;34.90;30.20;;;;;;5009874;28;20026;-66
2023/10/14 03:33:32;;;;;;;1.20;0.57;;;34.90;29.20;;;;;;5010633;28;20034;-67
2023/10/14 03:36:03;;;;;;;1.17;0.30;;;34.30;29.60;;;;;;5010908;28;20141;-67
2023/10/14 03:41:20;;;;;;;1.25;0.70;;;33.90;29.90;;;;;;5010395;28;20084;-68
2023/10/14 03:46:35;;;;;;;1.80;0.73;;;32.90;31.70;;;;;;5010695;28;20475;-66
2023/10/14 03:49:06;;;;;;;1.10;0.60;;;33.10;30.60;;;;;;5008890;28;20723;-66
2023/10/14 03:51:35;;;;;;;2.45;0.70;;;33.00;30.60;;;;;;5010491;28;20064;-67
2023/10/14 03:54:08;;;;;;;1.63;0.60;;;32.00;31.80;;;;;;5010429;28;20080;-68
2023/10/14 03:56:38;;;;;;;1.77;0.60;;;31.10;33.40;;;;;;5010479;28;20096;-68
2023/10/14 03:59:06;;;;;;;1.02;0.80;;;31.40;32.00;;;;;;5005120;28;20073;-69
2023/10/14 04:04:21;;;;;;;1.80;0.55;;;32.10;32.00;;;;;;5007158;28;20046;-68
2023/10/14 04:09:38;;;;;;;1.30;0.60;;;32.40;31.20;;;;;;5005447;28;20056;-68
2023/10/14 04:12:09;;;;;;;1.13;0.68;;;32.40;31.80;;;;;;5009428;28;20044;-68
2023/10/14 04:14:38;;;;;;;4.43;0.90;;;32.50;30.90;;;;;;5007783;28;20394;-68
2023/10/14 04:17:20;;;;;;;2.30;0.60;;;32.30;30.70;;;;;;5000624;28;20042;-67
2023/10/14 04:19:53;;;;;;;2.05;0.85;;;32.10;30.90;;;;;;5006114;28;20049;-67
2023/10/14 04:25:39;;;;;;;2.05;0.70;;;32.00;30.50;;;;;;5008358;28;20053;-68
2023/10/14 04:30:38;;;;;;;3.13;0.80;;;31.90;30.80;;;;;;5009933;28;20502;-68
2023/10/14 04:33:19;;;;;;;1.33;0.70;;;31.70;30.60;;;;;;5012433;28;20034;-66
2023/10/14 04:36:19;;;;;;;4.75;0.65;;;31.30;31.70;;;;;;5013318;28;20109;-67
2023/10/14 04:38:47;;;;;;;2.53;0.80;;;31.00;32.10;;;;;;5012384;28;20037;-67
2023/10/14 04:41:15;;;;;;;1.23;0.73;;;30.60;32.40;;;;;;4985699;28;20037;-67
2023/10/14 04:46:20;;;;;;;4.28;0.80;;;30.60;32.80;;;;;;5011054;28;20064;-67
2023/10/14 04:48:51;;;;;;;0.68;0.60;;;30.70;32.40;;;;;;5013550;28;20036;-68
2023/10/14 04:51:21;;;;;;;2.00;0.82;;;30.40;32.70;;;;;;4991908;28;20078;-67
2023/10/14 04:53:50;;;;;;;1.52;0.80;;;29.80;33.00;;;;;;5013799;28;20199;-68
2023/10/14 04:56:29;;;;;;;4.45;0.80;;;29.40;33.50;;;;;;5013991;28;20018;-68
2023/10/14 04:58:57;;;;;;;1.27;0.70;;;29.40;34.30;;;;;;5013295;28;20105;-68
2023/10/14 05:01:25;;;;;;;1.70;0.70;;;29.30;33.70;;;;;;5011750;28;20084;-67
2023/10/14 05:03:57;;;;;;;0.63;0.50;;;29.40;33.60;;;;;;5012384;28;20202;-68
2023/10/14 05:06:29;;;;;;;1.65;0.80;;;29.30;33.50;;;;;;5012857;28;20840;-67
2023/10/14 05:08:57;;;;;;;2.05;0.65;;;29.20;33.90;;;;;;5012244;28;20379;-67
2023/10/14 05:11:26;;;;;;;0.80;0.60;;;29.30;33.80;;;;;;5011829;28;20045;-68
2023/10/14 05:14:14;;;;;;;1.88;0.70;;;29.30;33.50;;;;;;5013421;28;20049;-67
2023/10/14 05:16:57;;;;;;;1.35;0.60;;;29.10;33.50;;;;;;5010634;28;20490;-68
2023/10/14 05:19:30;;;;;;;4.05;0.82;;;29.10;34.20;;;;;;5009771;28;20388;-68
2023/10/14 05:22:10;;;;;;;1.40;0.70;;;29.00;33.40;;;;;;5009020;28;20029;-69
2023/10/14 05:24:45;;;;;;;1.13;0.60;;;28.90;33.70;;;;;;4995286;28;20431;-70
2023/10/14 05:27:12;;;;;;;2.25;0.70;;;28.90;33.30;;;;;;5013593;28;20112;-68
2023/10/14 05:29:40;;;;;;;2.95;0.50;;;28.90;33.20;;;;;;5008359;28;20425;-67
2023/10/14 05:32:18;;;;;;;1.17;0.80;;;28.90;33.20;;;;;;5005829;28;20494;-68
2023/10/14 05:34:46;;;;;;;0.93;0.65;;;28.90;33.90;;;;;;5012342;28;20498;-68
2023/10/14 05:37:14;;;;;;;1.10;0.50;;;29.00;33.10;;;;;;5011525;28;20026;-69
2023/10/14 05:39:42;;;;;;;1.38;0.50;;;29.10;33.00;;;;;;5006356;28;20033;-68
2023/10/14 05:42:17;;;;;;;1.27;0.60;;;28.90;33.40;;;;;;5007049;28;20475;-67
2023/10/14 05:44:49;;;;;;;2.33;0.60;;;28.70;33.50;;;;;;5010916;28;20038;-67
2023/10/14 05:47:19;;;;;;;1.58;0.90;;;28.30;33.80;;;;;;5009785;28;20105;-66
2023/10/14 05:49:47;;;;;;;1.85;0.43;;;28.00;34.50;;;;;;4988266;28;20426;-67
2023/10/14 05:52:15;;;;;;;1.63;0.85;;;28.10;35.20;;;;;;5008908;28;20061;-66
2023/10/14 05:54:45;;;;;;;0.70;0.50;;;28.10;34.80;;;;;;5010558;28;20049;-67
2023/10/14 05:57:12;;;;;;;1.60;0.60;;;27.90;35.10;;;;;;5000652;28;20543;-66
2023/10/14 05:59:41;;;;;;;1.80;0.60;;;27.80;35.30;;;;;;5003192;28;20044;-67
2023/10/14 06:02:11;;;;;;;3.00;0.70;;;27.70;35.50;;;;;;5002420;28;20125;-68
2023/10/14 06:04:41;;;;;;;2.20;0.77;;;27.80;35.70;;;;;;5006361;28;20226;-68
2023/10/14 06:07:11;;;;;;;1.25;0.70;;;27.80;36.00;;;;;;5011566;28;20032;-68
2023/10/14 06:09:39;;;;;;;2.88;0.85;;;27.80;35.50;;;;;;5007590;28;20022;-68
2023/10/14 06:12:12;;;;;;;1.67;0.75;;;27.90;35.40;;;;;;5005619;28;20211;-68
2023/10/14 06:14:48;;;;;;;1.40;0.60;;;27.90;35.50;;;;;;5003914;28;20456;-67
2023/10/14 06:17:16;;;;;;;1.17;0.65;;;27.90;35.70;;;;;;5005766;28;20386;-67
2023/10/14 06:19:43;;;;;;;4.03;0.70;;;28.10;35.40;;;;;;5009513;28;20116;-67
2023/10/14 06:22:13;;;;;;;1.90;0.70;;;28.00;35.70;;;;;;5011015;28;20033;-68
2023/10/14 06:24:41;;;;;;;0.77;0.35;;;27.90;35.80;;;;;;5010020;28;20064;-67
2023/10/14 06:27:09;;;;;;;3.35;0.90;;;27.90;36.00;;;;;;5008838;28;20029;-68
2023/10/14 06:29:37;;;;;;;3.10;0.60;;;27.80;36.40;;;;;;5009983;28;20060;-68
2023/10/14 06:32:05;;;;;;;0.93;0.50;;;27.70;36.20;;;;;;5012026;28;20041;-67
2023/10/14 06:34:34;;;;;;;0.82;0.40;;;27.70;35.80;;;;;;5009529;28;20041;-67
2023/10/14 06:37:02;;;;;;;2.38;1.10;;;27.60;36.10;;;;;;5008573;28;20079;-67
2023/10/14 06:39:39;;;;;;;2.42;0.60;;;27.50;36.00;;;;;;5005771;28;20030;-67
2023/10/14 06:42:07;;;;;;;0.98;0.52;;;27.50;36.20;;;;;;4993228;28;20030;-67
2023/10/14 06:44:34;;;;;;;1.35;0.60;;;27.30;36.60;;;;;;5004824;28;20034;-67
2023/10/14 06:47:03;;;;;;;1.30;0.55;;;27.30;36.40;;;;;;5002942;28;20034;-67
2023/10/14 06:49:36;;;;;;;1.20;0.57;;;27.30;36.00;;;;;;5003616;28;20037;-66
2023/10/14 06:52:07;;;;;;;1.08;0.50;;;27.20;36.20;;;;;;5000570;28;20588;-67
2023/10/14 06:54:36;;;;;;;4.38;0.65;;;27.20;35.50;;;;;;5001305;28;20038;-66
2023/10/14 06:57:07;;;;;;;1.42;0.57;;;27.20;36.00;;;;;;5006325;28;20308;-66
2023/10/14 06:59:39;;;;;;;1.45;0.45;;;27.00;36.10;;;;;;5010858;28;20450;-66
2023/10/14 07:02:06;;;;;;;0.63;0.43;;;26.90;36.30;;;;;;5009764;28;20045;-67
2023/10/14 07:04:37;;;;;;;1.77;1.00;;;26.90;35.80;;;;;;5011765;28;20097;-67
2023/10/14 07:07:08;;;;;;;1.17;0.55;;;26.90;36.00;;;;;;5003021;28;20462;-66
2023/10/14 07:09:37;;;;;;;1.13;0.90;;;26.70;35.70;;;;;;5006053;28;20374;-66
2023/10/14 07:12:13;;;;;;;0.70;0.60;;;26.70;35.40;;;;;;5007131;28;20125;-68
2023/10/14 07:14:44;;;;;;;2.08;0.50;;;26.80;35.40;;;;;;5009617;28;20048;-67
2023/10/14 07:17:13;;;;;;;2.58;0.55;;;26.70;35.70;;;;;;5004602;28;20475;-67
2023/10/14 07:19:40;;;;;;;2.47;0.88;;;26.60;35.90;;;;;;4999917;28;20032;-67
2023/10/14 07:22:10;;;;;;;2.47;0.65;;;26.70;36.40;;;;;;5006696;28;20164;-66
2023/10/14 07:24:38;;;;;;;1.55;0.82;;;26.90;36.10;;;;;;5009237;28;20030;-68
2023/10/14 07:27:06;;;;;;;1.35;0.70;;;26.90;36.40;;;;;;5008099;28;20107;-67
2023/10/14 07:29:34;;;;;;;1.30;0.70;;;26.80;36.50;;;;;;4993541;28;20030;-67
2023/10/14 07:32:01;;;;;;;0.82;0.50;;;26.80;36.60;;;;;;5011594;28;20037;-67
2023/10/14 07:34:29;;;;;;;4.05;0.60;;;26.70;36.80;;;;;;5007486;28;20038;-67
2023/10/14 07:36:56;;;;;;;2.45;0.65;;;26.60;36.80;;;;;;5007519;28;20030;-67
2023/10/14 07:39:29;;;;;;;1.00;0.75;;;26.60;36.80;;;;;;4991811;28;20317;-68
2023/10/14 07:41:57;;;;;;;1.65;0.85;;;26.50;37.10;;;;;;4993378;28;20033;-67
2023/10/14 07:44:25;;;;;;;2.78;1.13;;;26.40;37.20;;;;;;5008052;28;20539;-67
2023/10/14 07:46:54;;;;;;;1.33;0.70;;;26.50;37.00;;;;;;5009567;28;20034;-67
2023/10/14 07:49:21;;;;;;;3.05;0.90;;;26.40;37.10;;;;;;5010301;28;20447;-67
2023/10/14 07:51:54;;;;;;;0.38;0.30;;;26.30;37.10;;;;;;4994092;28;20033;-68
2023/10/14 07:54:21;;;;;;;3.60;0.73;;;26.10;36.90;;;;;;5008288;28;20080;-66
2023/10/14 07:56:49;;;;;;;0.80;0.60;;;26.00;37.20;;;;;;5002264;28;20033;-67
2023/10/14 07:59:16;;;;;;;2.60;0.98;;;25.90;37.30;;;;;;5002959;28;20050;-66
2023/10/14 08:01:45;;;;;;;0.60;0.60;;;25.80;37.80;;;;;;4980598;28;20030;-64
2023/10/14 08:04:15;;;;;;;1.45;0.60;;;25.90;37.90;;;;;;5002337;28;20033;-64
2023/10/14 08:06:43;;;;;;;0.68;0.50;;;25.80;37.70;;;;;;5008935;28;20018;-64
2023/10/14 08:09:28;;;;;;;2.28;0.80;;;25.80;38.20;;;;;;5005469;28;20062;-64
2023/10/14 08:11:56;;;;;;;1.02;0.68;;;25.80;38.10;;;;;;5005327;28;20057;-64
2023/10/14 08:14:23;;;;;;;3.45;1.13;;;25.70;38.20;;;;;;5000150;28;20038;-63
2023/10/14 08:16:51;;;;;;;6.30;1.05;;;25.70;38.40;;;;;;5009838;28;20172;-64
2023/10/14 08:19:21;;;;;;;2.10;1.00;;;25.60;38.50;;;;;;5009878;28;20440;-63
2023/10/14 08:21:50;;;;;;;2.65;1.10;;;25.60;38.60;;;;;;4991185;28;20083;-63
2023/10/14 08:24:18;;;;;;;1.38;0.80;;;25.40;39.00;;;;;;5000042;28;20025;-64
2023/10/14 08:26:46;;;;;;;1.88;0.70;;;25.40;39.30;;;;;;5005056;28;20033;-64
2023/10/14 08:29:14;;;;;;;4.05;0.82;;;25.40;39.50;;;;;;5009631;28;20536;-64
2023/10/14 08:31:42;;;;;;;2.92;0.80;;;25.40;39.40;;;;;;5005804;28;20358;-63
2023/10/14 08:34:10;;;;;;;3.08;0.93;;;25.20;39.90;;;;;;4983187;28;20042;-64
2023/10/14 08:36:42;;;;;;;1.90;1.27;;;25.10;40.00;;;;;;5009321;28;20044;-66
2023/10/14 08:39:10;;;;;;;3.90;1.58;;;25.20;40.20;;;;;;5008997;28;20014;-63
2023/10/14 08:41:39;;;;;;;4.65;1.95;;;25.20;39.90;;;;;;4999626;28;20034;-63
2023/10/14 08:44:10;;;;;;;8.65;1.75;;;25.10;40.00;;;;;;5000941;28;20171;-63
2023/10/14 08:46:40;;;;;;;4.88;1.88;;;25.20;40.00;;;;;;5009315;28;20022;-63
2023/10/14 08:49:12;;;;;;;2.35;1.13;;;25.10;40.10;;;;;;5004444;28;20034;-62
2023/10/14 08:51:42;;;;;;;4.97;1.20;;;25.10;40.10;;;;;;4999734;28;20407;-64
2023/10/14 08:54:11;;;;;;;3.70;1.20;;;25.10;39.90;;;;;;5006638;28;20096;-64
2023/10/14 08:56:39;;;;;;;5.00;1.67;;;25.10;40.10;;;;;;5007781;28;20022;-63
2023/10/14 08:59:07;;;;;;;5.93;1.90;;;25.00;40.20;;;;;;5003446;28;20060;-63
2023/10/14 09:01:35;;;;;;;2.45;1.38;;;24.90;40.40;;;;;;4989804;28;20034;-62
2023/10/14 09:04:03;;;;;;;2.03;0.85;;;24.80;40.60;;;;;;5007080;28;20030;-63
2023/10/14 09:06:32;;;;;;;2.95;0.70;;;24.80;40.60;;;;;;4990786;28;20044;-63
2023/10/14 09:08:59;;;;;;;1.38;0.65;;;24.70;40.80;;;;;;5003207;28;20030;-64
2023/10/14 09:11:33;;;;;;;2.75;0.70;;;24.70;40.90;;;;;;5005785;28;20054;-63
2023/10/14 09:14:06;;;;;;;1.95;1.00;;;24.60;41.10;;;;;;5007459;28;20048;-63
2023/10/14 09:16:36;;;;;;;1.10;0.73;;;24.60;41.00;;;;;;5007742;28;20056;-64
2023/10/14 09:19:05;;;;;;;1.52;0.80;;;24.60;41.30;;;;;;5005692;28;20033;-65
2023/10/14 09:21:42;;;;;;;1.00;0.63;;;24.40;41.80;;;;;;5009645;28;20033;-64
2023/10/14 09:24:10;;;;;;;3.03;1.00;;;24.40;42.10;;;;;;5008969;28;20037;-63
2023/10/14 09:26:44;;;;;;;3.20;0.77;;;24.30;42.30;;;;;;5012716;28;20407;-64
2023/10/14 09:29:12;;;;;;;1.75;0.70;;;24.20;42.80;;;;;;5011074;28;20058;-64
2023/10/14 09:31:40;;;;;;;1.17;0.95;;;24.20;42.90;;;;;;5011382;28;20562;-63
2023/10/14 09:34:08;;;;;;;4.53;0.77;;;24.20;42.80;;;;;;5005919;28;20116;-65
2023/10/14 09:36:43;;;;;;;2.22;0.68;;;24.10;43.10;;;;;;5007236;28;20026;-65
2023/10/14 09:39:15;;;;;;;1.80;0.77;;;24.10;43.80;;;;;;5009450;28;20024;-66
2023/10/14 09:41:47;;;;;;;1.17;0.85;;;24.10;43.60;;;;;;5011108;28;20030;-65
2023/10/14 09:44:17;;;;;;;2.13;0.65;;;24.00;43.80;;;;;;5008323;28;20041;-68
2023/10/14 09:46:47;;;;;;;2.53;0.60;;;24.00;44.00;;;;;;5009509;28;20026;-65
2023/10/14 09:49:17;;;;;;;3.08;0.90;;;23.90;44.30;;;;;;5008753;28;20065;-65
2023/10/14 09:51:48;;;;;;;1.15;0.52;;;23.90;44.30;;;;;;5009990;28;20088;-63
2023/10/14 09:54:17;;;;;;;1.38;0.50;;;23.90;44.40;;;;;;5007887;28;20046;-63
2023/10/14 09:56:46;;;;;;;3.60;0.82;;;23.90;44.60;;;;;;5011174;28;20471;-62
2023/10/14 09:59:14;;;;;;;1.10;0.50;;;23.80;44.80;;;;;;4990651;28;20056;-64
2023/10/14 10:01:43;;;;;;;3.38;0.70;;;23.80;44.80;;;;;;5010925;28;20026;-64
2023/10/14 10:04:19;;;;;;;2.17;0.65;;;23.80;45.50;;;;;;5006999;28;20026;-63
2023/10/14 10:07:15;;;;;;;2.05;0.45;;;23.70;45.10;;;;;;5008314;28;20470;-64
2023/10/14 10:09:49;;;;;;;3.40;0.90;;;23.70;45.20;;;;;;5007387;28;20606;-63
2023/10/14 10:12:21;;;;;;;2.35;0.63;;;23.60;45.20;;;;;;5005088;28;20022;-64
2023/10/14 10:15:01;;;;;;;0.88;0.60;;;23.50;45.40;;;;;;5006190;28;20133;-66
2023/10/14 10:17:30;;;;;;;0.90;0.60;;;23.50;45.50;;;;;;4999746;28;20025;-65
2023/10/14 10:20:17;;;;;;;1.70;0.73;;;23.40;45.70;;;;;;4985817;28;20029;-66
2023/10/14 10:22:52;;;;;;;1.83;0.60;;;23.40;45.70;;;;;;4999877;28;20026;-66
2023/10/14 10:25:23;;;;;;;0.73;0.55;;;23.40;45.70;;;;;;4998108;28;20114;-66
2023/10/14 10:27:55;;;;;;;1.15;0.50;;;23.20;46.20;;;;;;5000251;28;20402;-64
2023/10/14 10:30:24;;;;;;;1.05;0.60;;;23.00;46.70;;;;;;4998109;28;20030;-65
2023/10/14 10:32:52;;;;;;;0.70;0.57;;;22.90;47.00;;;;;;5000873;28;20566;-65
2023/10/14 10:35:21;;;;;;;1.90;0.50;;;22.70;47.30;;;;;;5004723;28;20046;-65
2023/10/14 10:37:54;;;;;;;3.42;0.70;;;22.70;47.40;;;;;;5007535;28;20034;-66
2023/10/14 10:40:27;;;;;;;2.75;0.57;;;22.70;47.60;;;;;;4990366;28;20030;-66
2023/10/14 10:43:11;;;;;;;3.08;0.85;;;22.60;47.80;;;;;;5000157;28;20553;-66
2023/10/14 10:45:42;;;;;;;0.63;0.50;;;22.50;48.10;;;;;;4991574;28;20046;-65
2023/10/14 10:48:16;;;;;;;4.53;0.70;;;22.40;48.50;;;;;;5007800;28;20026;-66
2023/10/14 10:50:51;;;;;;;0.77;0.68;;;22.30;48.60;;;;;;5010070;28;20437;-66
2023/10/14 10:53:23;;;;;;;2.08;0.70;;;22.40;48.40;;;;;;5007607;28;20033;-65
2023/10/14 10:55:51;;;;;;;0.80;0.60;;;22.30;48.60;;;;;;5007152;28;20089;-65
2023/10/14 10:58:20;;;;;;;3.70;0.82;;;22.30;49.30;;;;;;5008770;28;20050;-65
2023/10/14 11:00:49;;;;;;;3.50;1.00;;;22.20;48.90;;;;;;5000789;28;20036;-65
2023/10/14 11:03:17;;;;;;;1.85;0.90;;;22.20;48.90;;;;;;5008501;28;20022;-65
2023/10/14 11:05:46;;;;;;;2.08;0.82;;;22.20;48.90;;;;;;5011040;28;20379;-66
2023/10/14 11:08:17;;;;;;;2.30;0.70;;;22.20;48.80;;;;;;5006936;28;20100;-66
2023/10/14 11:10:48;;;;;;;0.98;0.50;;;22.10;49.30;;;;;;5009901;28;20033;-66
2023/10/14 11:13:19;;;;;;;2.55;0.60;;;22.10;49.20;;;;;;5010356;28;20034;-66
2023/10/14 11:15:50;;;;;;;2.80;0.75;;;22.20;48.70;;;;;;5011045;28;20054;-66
2023/10/14 11:18:18;;;;;;;2.72;0.60;;;22.20;48.60;;;;;;5009794;28;20033;-66
2023/10/14 11:20:47;;;;;;;1.60;0.60;;;22.20;48.50;;;;;;5006897;28;20044;-66
2023/10/14 11:23:17;;;;;;;3.17;0.73;;;22.20;48.40;;;;;;5008280;28;20117;-66
2023/10/14 11:25:54;;;;;;;0.73;0.55;;;22.20;48.30;;;;;;5009627;28;20033;-66
2023/10/14 11:28:26;;;;;;;1.95;0.55;;;22.10;48.50;;;;;;5007069;28;20054;-66
2023/10/14 11:30:55;;;;;;;2.25;0.73;;;22.10;48.90;;;;;;5005196;28;20045;-66
2023/10/14 11:33:23;;;;;;;3.20;0.63;;;22.00;49.10;;;;;;4995016;28;20026;-66
2023/10/14 11:35:50;;;;;;;1.90;0.75;;;21.90;49.30;;;;;;4996489;28;20034;-66
2023/10/14 11:38:17;;;;;;;1.02;0.50;;;21.90;49.80;;;;;;4979284;28;20037;-66
2023/10/14 11:40:50;;;;;;;0.85;0.55;;;21.80;49.40;;;;;;4992655;28;20101;-67
2023/10/14 11:43:21;;;;;;;1.80;0.80;;;21.80;49.70;;;;;;4994611;28;20133;-68
2023/10/14 11:45:48;;;;;;;1.45;0.85;;;21.70;49.80;;;;;;4992811;28;20459;-68
2023/10/14 11:48:29;;;;;;;1.95;0.90;;;21.60;50.20;;;;;;4994105;28;20049;-65
2023/10/14 11:51:02;;;;;;;3.67;0.60;;;21.50;50.10;;;;;;4993412;28;20034;-66
2023/10/14 11:53:33;;;;;;;3.30;0.70;;;21.50;50.40;;;;;;4998974;28;20033;-68
2023/10/14 11:56:03;;;;;;;1.90;0.60;;;21.60;49.70;;;;;;5010346;28;20026;-65
2023/10/14 11:58:32;;;;;;;1.95;0.88;;;21.60;49.20;;;;;;5005321;28;20033;-66
2023/10/14 12:01:00;;;;;;;0.95;0.70;;;21.50;49.00;;;;;;5009074;28;20501;-65
2023/10/14 12:03:28;;;;;;;3.08;0.60;;;21.40;49.40;;;;;;5009257;28;20022;-66
2023/10/14 12:05:59;;;;;;;1.55;0.60;;;21.30;49.40;;;;;;4993435;28;20340;-67
2023/10/14 12:08:36;;;;;;;0.95;0.50;;;21.30;49.70;;;;;;5002223;28;21392;-67
2023/10/14 12:11:04;;;;;;;0.90;0.50;;;21.20;49.80;;;;;;5009606;28;20097;-67
2023/10/14 12:13:32;;;;;;;1.20;0.50;;;21.10;50.50;;;;;;5008362;28;20026;-66
2023/10/14 12:16:05;;;;;;;1.00;0.43;;;21.00;50.90;;;;;;5002800;28;20089;-67
2023/10/14 12:18:37;;;;;;;0.52;0.40;;;20.90;51.20;;;;;;5011162;28;20030;-67
2023/10/14 12:21:04;;;;;;;1.85;0.50;;;20.90;51.50;;;;;;5011613;28;20022;-67
2023/10/14 12:23:32;;;;;;;2.80;0.55;;;20.70;51.70;;;;;;5008135;28;20363;-67
2023/10/14 12:26:01;;;;;;;2.55;0.60;;;20.70;52.30;;;;;;5003620;28;20092;-68
2023/10/14 12:28:33;;;;;;;0.60;0.40;;;20.60;52.60;;;;;;5004604;28;20037;-66
2023/10/14 12:31:12;;;;;;;0.75;0.35;;;20.40;53.00;;;;;;5002207;28;20025;-67
2023/10/14 12:33:41;;;;;;;0.80;0.60;;;20.40;53.20;;;;;;4989994;28;20121;-67
2023/10/14 12:36:10;;;;;;;4.22;0.70;;;20.30;53.60;;;;;;5004869;28;20114;-66
2023/10/14 12:38:42;;;;;;;1.05;0.50;;;20.20;54.00;;;;;;5004897;28;20014;-67
2023/10/14 12:41:13;;;;;;;1.85;0.70;;;20.20;54.30;;;;;;5008640;28;20133;-67
2023/10/14 12:43:40;;;;;;;1.80;0.50;;;20.10;54.30;;;;;;4990955;28;20136;-67
2023/10/14 12:46:19;;;;;;;3.75;0.50;;;20.10;54.40;;;;;;5004060;28;20482;-67
2023/10/14 12:48:50;;;;;;;1.60;0.50;;;20.10;54.90;;;;;;5011671;28;20120;-67
2023/10/14 12:51:25;;;;;;;2.63;0.40;;;19.90;55.60;;;;;;5015028;28;20026;-67
2023/10/14 12:53:57;;;;;;;1.30;0.50;;;19.90;55.40;;;;;;5011192;28;20042;-67
2023/10/14 12:56:28;;;;;;;1.65;0.50;;;19.80;55.80;;;;;;5005967;28;20488;-67
2023/10/14 12:58:58;;;;;;;2.30;0.40;;;19.70;56.00;;;;;;5007867;28;20132;-68
2023/10/14 13:01:25;;;;;;;1.75;0.63;;;19.70;56.10;;;;;;5009318;28;20018;-67
2023/10/14 13:03:56;;;;;;;0.40;0.30;;;19.60;56.50;;;;;;5011955;28;20621;-68
2023/10/14 13:06:26;;;;;;;1.85;0.70;;;19.50;56.70;;;;;;5013314;28;20036;-67
2023/10/14 13:08:58;;;;;;;2.55;0.50;;;19.40;57.00;;;;;;5012158;28;20120;-67
2023/10/14 13:11:28;;;;;;;1.55;0.50;;;19.40;57.20;;;;;;4995585;28;20423;-67
2023/10/14 13:13:56;;;;;;;1.42;0.55;;;19.40;57.20;;;;;;5010119;28;20502;-67
2023/10/14 13:16:26;;;;;;;3.05;0.93;;;19.20;57.50;;;;;;5013224;28;20033;-68
2023/10/14 13:18:56;;;;;;;2.72;0.57;;;19.30;57.70;;;;;;5013367;28;20049;-68
2023/10/14 13:21:30;;;;;;;1.63;0.47;;;19.20;57.90;;;;;;5012719;28;20344;-67
2023/10/14 13:24:05;;;;;;;0.77;0.55;;;19.10;58.20;;;;;;5007348;28;20443;-69
2023/10/14 13:26:32;;;;;;;3.30;0.80;;;19.10;58.40;;;;;;5012674;28;20026;-68
2023/10/14 13:29:00;;;;;;;3.70;0.75;;;19.10;58.40;;;;;;5010016;28;20064;-68
2023/10/14 13:31:27;;;;;;;5.03;0.75;;;19.00;58.40;;;;;;5013945;28;20029;-67
2023/10/14 13:33:55;;;;;;;3.00;0.75;;;19.00;58.20;;;;;;5009454;28;20045;-68
2023/10/14 13:36:23;;;;;;;5.20;0.90;;;18.90;58.40;;;;;;5010099;28;20022;-67
2023/10/14 13:38:50;;;;;;;5.35;0.95;;;18.90;58.50;;;;;;5012566;28;20033;-68
2023/10/14 13:41:18;;;;;;;1.15;0.52;;;18.80;58.70;;;;;;5013123;28;20097;-67
2023/10/14 13:43:46;;;;;;;3.42;0.70;;;18.80;59.00;;;;;;5010830;28;20441;-67